»·PEaware :: N8018N KLAX-KSNA

N8018N :: KLAX-KSNA

FLIGHT INFORMATION

Flight Status: Arrived
Operator: Privately registered:
United States
More flights under this callsign
Pilot: Martin K. (14811)
Aircraft: PIPER PA-28 CHEROKEE ARCHER
(PA28)
More flights by this aircraft type
Origin: KLAX Los Angeles Intl
United States
Destination: KSNA John Wayne-Orange Co
United States
More flights between these airports :: More routes between these airports
Route: SLI8 SLI
File this flight plan on PilotEdge
Remarks:
Altitude:
(Current/Filed)
4,000ft
Speed:
(Current/Filed)
107kts
Departed: 02-Oct-20 06:10 PM
Arrived: 02-Oct-20 06:55 PM
Distance/Time
Traveled:
31nm/0:45
Distance/Time
To Go:
Arrived

Flight Plot

Page will automatically refresh every two minutes.

Flight plan parsing failed; only flown route is shown


Map Options




Map Legend


Flown Route
Filed Route
Departure Airport
Arrival Airport
Navaid (VOR, NDB)
Fix

Horizontal Profiles

Position Reports

Time Latitude Longitude Heading Altitude Ground
Speed
02-Oct-20 17:57 33.932658 -118.399144 83 113ft 0kts
02-Oct-20 17:58 33.932658 -118.399144 83 113ft 0kts
02-Oct-20 17:59 33.932658 -118.399144 83 113ft 0kts
02-Oct-20 18:00 33.932658 -118.399144 83 113ft 0kts
02-Oct-20 18:01 33.932658 -118.399144 83 113ft 0kts
02-Oct-20 18:02 33.933608 -118.398427 45 110ft 6kts
02-Oct-20 18:03 33.934624 -118.397445 83 109ft 8kts
02-Oct-20 18:04 33.935138 -118.392459 84 103ft 17kts
02-Oct-20 18:05 33.935648 -118.387461 82 100ft 13kts
02-Oct-20 18:06 33.936024 -118.383785 83 98ft 10kts
02-Oct-20 18:07 33.936403 -118.382872 13 97ft 0kts
02-Oct-20 18:08 33.936403 -118.382872 13 97ft 0kts
02-Oct-20 18:09 33.937134 -118.384971 263 100ft 43kts
02-Oct-20 18:10 33.934545 -118.413034 264 494ft 100kts
02-Oct-20 18:11 33.922827 -118.439862 207 1153ft 102kts
02-Oct-20 18:12 33.892418 -118.459394 214 1248ft 115kts
02-Oct-20 18:13 33.868705 -118.474873 214 2178ft 86kts
02-Oct-20 18:14 33.843872 -118.479345 146 2741ft 106kts
02-Oct-20 18:15 33.819521 -118.458065 145 3210ft 118kts
02-Oct-20 18:16 33.795399 -118.436500 146 3878ft 109kts
02-Oct-20 18:17 33.767881 -118.413414 144 4051ft 135kts
02-Oct-20 18:18 33.735893 -118.386416 145 4078ft 143kts
02-Oct-20 18:19 33.702697 -118.359317 145 4150ft 138kts
02-Oct-20 18:20 33.669541 -118.330354 144 3992ft 148kts
02-Oct-20 18:21 33.636610 -118.301460 144 3989ft 146kts
02-Oct-20 18:22 33.633793 -118.264863 33 3991ft 131kts
02-Oct-20 18:23 33.661636 -118.238482 33 3965ft 122kts
02-Oct-20 18:24 33.686147 -118.212662 42 4006ft 116kts
02-Oct-20 18:25 33.709759 -118.186467 58 4096ft 109kts
02-Oct-20 18:26 33.726795 -118.155801 58 4151ft 108kts
02-Oct-20 18:27 33.745792 -118.125139 56 4029ft 118kts
02-Oct-20 18:28 33.763426 -118.092869 62 3987ft 112kts
02-Oct-20 18:29 33.780217 -118.060963 62 4001ft 111kts
02-Oct-20 18:30 33.795466 -118.028524 60 4013ft 114kts
02-Oct-20 18:31 33.813573 -117.996342 57 4001ft 113kts
02-Oct-20 18:32 33.832956 -117.964454 59 4039ft 118kts
02-Oct-20 18:34 33.852955 -117.931411 57 4070ft 123kts
02-Oct-20 18:35 33.865033 -117.893167 78 4121ft 120kts
02-Oct-20 18:36 33.872039 -117.852620 80 4055ft 124kts
02-Oct-20 18:37 33.885225 -117.813492 69 4056ft 125kts
02-Oct-20 18:38 33.900428 -117.774131 71 3940ft 131kts
02-Oct-20 18:39 33.913836 -117.734654 67 3960ft 134kts
02-Oct-20 18:40 33.934754 -117.701977 21 3887ft 130kts
02-Oct-20 18:41 33.966224 -117.682434 22 3933ft 125kts
02-Oct-20 18:42 33.998355 -117.679838 316 3824ft 119kts
02-Oct-20 18:43 33.996516 -117.713717 210 3129ft 151kts
02-Oct-20 18:44 33.957520 -117.719949 183 3089ft 128kts
02-Oct-20 18:45 33.920855 -117.719752 184 2971ft 132kts
02-Oct-20 18:46 33.888650 -117.732648 212 2958ft 128kts
02-Oct-20 18:47 33.857271 -117.755570 204 2937ft 118kts
02-Oct-20 18:48 33.826240 -117.772308 208 2874ft 122kts
02-Oct-20 18:49 33.795905 -117.793137 204 2514ft 126kts
02-Oct-20 18:49 33.771397 -117.808553 209 2116ft 115kts
02-Oct-20 18:51 33.743857 -117.825622 207 1390ft 84kts
02-Oct-20 18:52 33.723484 -117.838561 202 1021ft 96kts
02-Oct-20 18:52 33.703467 -117.851318 209 625ft 69kts
02-Oct-20 18:54 33.685596 -117.862589 206 201ft 62kts
02-Oct-20 18:54 33.678007 -117.867413 238 61ft 12kts
02-Oct-20 18:55 33.676065 -117.870090 207 61ft 26kts
02-Oct-20 18:56 33.675670 -117.871064 295 61ft 0kts
02-Oct-20 19:07 33.682369 -117.860267 0 61ft 0kts
02-Oct-20 19:08 33.682369 -117.860267 118 61ft 0kts

Navigation Log

Ident Type
Flight plan parsing failed, navigation log unavailable